Flight Track Log - Related Links

Times and Time Zones

All times are in EDT time to prevent confusion due to time zone crossing. See the LAK674 flight status page for this flight to view local times or setup timezone preferences in your user account.

Time Position Orientation Groundspeed Altitude Reporting Facility
EDT Latitude Longitude Course Direction KTS MPH feet Rate Location/Type
Mon 07:55:33 PM 37.8697 -80.3139 86° East 264 304 6,100  Level Washington Center
Mon 07:56:33 PM 37.8622 -80.2369 97° East 250 288 8,200 2,034 Climbing Washington Center
Mon 07:57:31 PM 37.8678 -80.1453 86° East 241 277 10,100 2,067 Climbing Washington Center
Mon 07:58:00 PM 38.1407 -79.8710 86° East  Level Estimated
Mon 07:58:32 PM 37.8714 -80.0483 87° East 253 291 12,300  Level Washington Center
Mon 07:59:32 PM 37.8733 -79.9378 89° East 278 320 14,800 2,132 Climbing Washington Center
Mon 08:00:33 PM 37.8792 -79.8356 86° East 285 328 16,600 1,613 Climbing Washington Center
Mon 08:01:31 PM 37.8828 -79.7306 87° East 290 334 18,000 1,513 Climbing Washington Center
Mon 08:02:32 PM 37.8864 -79.6256 87° East 290 334 19,600 1,438 Climbing Washington Center
Mon 08:03:32 PM 37.8900 -79.5150 88° East 296 341 20,900 1,438 Climbing Washington Center
Mon 08:04:33 PM 37.8936 -79.4100 87° East 314 361 22,500 1,289 Climbing Washington Center
Mon 08:05:33 PM 37.8972 -79.2944 88° East 321 369 23,500 1,119 Climbing Washington Center
Mon 08:06:31 PM 37.9011 -79.1631 88° East 332 382 24,700 763 Climbing Washington Center
Mon 08:07:31 PM 37.9067 -79.0500 86° East 338 389 25,000 893 Climbing Washington Center
Mon 08:08:32 PM 37.9269 -78.9194 79° East 359 413 26,500 984 Climbing Washington Center
Mon 08:09:33 PM 37.9433 -78.7806 81° East 365 420 27,000 655 Climbing Washington Center
Mon 08:10:31 PM 37.9614 -78.6392 81° East 377 434 27,800 958 Climbing Washington Center
Mon 08:11:32 PM 37.9750 -78.5106 82° East 384 442 28,900 590 Climbing Washington Center
Mon 08:12:33 PM 37.9908 -78.3742 82° East 384 442 29,000 295 Climbing Washington Center
Mon 08:13:34 PM 38.0083 -78.2431 80° East 403 464 29,500 1,017 Climbing Washington Center
Mon 08:14:31 PM 38.0342 -78.1175 75° East 397 457 31,000 1,322 Climbing Washington Center
Mon 08:15:32 PM 38.0864 -78.0111 58° Northeast 365 420 32,100 927 Climbing Washington Center
Mon 08:16:34 PM 38.1406 -77.9044 57° Northeast 352 405 32,900 454 Climbing Washington Center
Mon 08:17:31 PM 38.1928 -77.7925 59° Northeast 353 406 33,000 51 Climbing Washington Center
Mon 08:18:32 PM 38.2531 -77.6778 56° Northeast 369 425 33,000  Level Washington Center
Mon 08:19:32 PM 38.3094 -77.5603 59° Northeast 381 438 33,000 -350 Level Washington Center
Mon 08:20:32 PM 38.3675 -77.4400 58° Northeast 387 445 32,300 -942 Descending Washington Center
Mon 08:21:33 PM 38.4300 -77.3144 58° Northeast 401 461 31,100 -1,160 Descending Washington Center
Mon 08:22:31 PM 38.4922 -77.1806 59° Northeast 413 475 30,000 -1,059 Descending Washington Center
Mon 08:23:32 PM 38.5586 -77.0467 58° Northeast 434 499 29,000 -492 Descending Washington Center
Mon 08:24:33 PM 38.6225 -76.9122 59° Northeast 434 499 29,000  Level Washington Center
Mon 08:25:34 PM 38.6844 -76.7831 58° Northeast 434 499 29,000  Level Washington Center
Mon 08:26:31 PM 38.7606 -76.6753 48° Northeast 421 484 29,000  Level Washington Center
Mon 08:27:32 PM 38.8467 -76.5806 41° Northeast 401 461 29,000 -738 Level Washington Center
Mon 08:28:33 PM 38.9308 -76.4828 42° Northeast 401 461 27,500 -1,636 Descending Washington Center
Mon 08:29:33 PM 39.0192 -76.3825 41° Northeast 406 467 25,700 -1,576 Descending Washington Center
Mon 08:30:31 PM 39.0989 -76.2897 42° Northeast 401 461 24,400 -850 Descending Washington Center
Mon 08:31:33 PM 39.1786 -76.1967 42° Northeast 389 448 24,000 -200 Descending Washington Center
Mon 08:32:31 PM 39.2583 -76.1036 42° Northeast 382 440 24,000 -958 Level Washington Center
Mon 08:33:32 PM 39.3439 -76.0236 36° Northeast 382 440 22,100 -2,016 Descending Washington Center
Mon 08:34:33 PM 39.4275 -75.9489 35° Northeast 370 426 19,900 -2,118 Descending Washington Center
Mon 08:35:31 PM 39.5028 -75.8714 38° Northeast 356 410 17,900 -1,858 Descending Washington Center
Mon 08:37:08 PM 39.6167 -75.7667 35° Northeast 309 356 15,100 -1,490 Descending Philadelphia TRACON
Mon 08:38:08 PM 39.7000 -75.7000 32° Northeast 317 365 14,000 -1,000 Descending Philadelphia TRACON
Mon 08:39:08 PM 39.7667 -75.6167 44° Northeast 328 377 13,100 -500 Descending Philadelphia TRACON
Mon 08:40:08 PM 39.8333 -75.5500 38° Northeast 311 358 13,000 -50 Descending Philadelphia TRACON
Mon 08:41:08 PM 39.9167 -75.5000 25° Northeast 300 345 13,000  Level Philadelphia TRACON
Mon 08:42:08 PM 39.9833 -75.4333 37° Northeast 319 367 13,000  Level Philadelphia TRACON
Mon 08:43:08 PM 40.0500 -75.3667 37° Northeast 329 379 13,000  Level Philadelphia TRACON
Mon 08:44:08 PM 40.1167 -75.3000 37° Northeast 320 368 13,000 -496 Level Philadelphia TRACON
Mon 08:45:09 PM 40.2000 -75.2333 31° Northeast 315 362 12,000 -1,450 Descending Philadelphia TRACON
Mon 08:47:39 PM 40.3500 -75.0667 40° Northeast 294 338 7,900 -1,571 Descending New York TRACON
Mon 08:48:39 PM 40.4167 -74.9833 44° Northeast 273 314 6,500 -1,300 Descending New York TRACON
Mon 08:49:39 PM 40.4500 -74.9167 57° Northeast 258 297 5,300 -1,150 Descending New York TRACON
Mon 08:50:39 PM 40.5000 -74.8500 45° Northeast 255 293 4,200 -650 Descending New York TRACON
Mon 08:51:39 PM 40.5500 -74.7833 45° Northeast 260 299 4,000 -100 Descending New York TRACON
Mon 08:52:39 PM 40.6000 -74.7167 45° Northeast 256 295 4,000 -250 Level New York TRACON
Mon 08:53:39 PM 40.6667 -74.6500 37° Northeast 260 299 3,500 -500 Descending New York TRACON
Mon 08:54:39 PM 40.7167 -74.6000 37° Northeast 256 295 3,000 -700 Descending New York TRACON
Mon 08:55:39 PM 40.7667 -74.5333 45° Northeast 238 274 2,100 -500 Descending New York TRACON
Mon 08:56:39 PM 40.8000 -74.4833 49° Northeast 212 244 2,000 -316 Descending New York TRACON
Mon 08:57:33 PM 40.8333 -74.4333 49° Northeast 197 227 1,500 -474 Descending New York TRACON
Mon 08:58:33 PM 40.8333 -74.3833 90° East 166 191 1,100 -400 Descending New York TRACON
Mon 09:00:00 PM 40.7993 -74.4149 194° South  Level Estimated

Login

Don't have an account? Register now (free) for customized features, flight alerts, and more!